• LFSB

    METAR de LFSB (émis le 2021/01/17 06:00 UTC):
    LFSB 170600Z VRB03KT 4000 BR OVC011 M00/M00 Q1017 R15/2901// NOSIG

    TAF de LFSB (émis le 2021/01/17 06:06 UTC):
    LFSB 170500Z 1706/1806 VRB03KT 4500 BR OVC012 BECMG 1706/1708 27012KT 9999 NSW SCT018 BKN050 TEMPO 1708/1717 27015G25KT -RA BKN012 TEMPO 1800/1806 BKN008
  • LFSX

    METAR de LFSX (émis le 2021/01/17 06:00 UTC):
    LFSX 170600Z AUTO 27005KT 9999 OVC006 01/00 Q1018

    TAF de LFSX (émis le 2021/01/15 14:24 UTC):
    LFSX 151412Z 1514/1615 CNL
  • LFSD

    METAR de LFSD (émis le 2021/01/17 06:00 UTC):
    LFSD 170600Z AUTO 19006KT 6000 -DZ FEW043 OVC056 01/00 Q1019

    TAF de LFSD (émis le 2015/06/01 00:11 UTC):
    LFSD 010600Z 0100/0124 CNL
  • LFGJ

    METAR de LFGJ (émis le 2021/01/17 06:00 UTC):
    LFGJ 170600Z AUTO 19008KT 8000 OVC006 01/00 Q1020

    TAF COURT de LFGJ
    (émis le 2021/01/17 06:08 UTC):
    TAF LFGJ 170500Z 1706/1715 21007KT 9999 OVC008 TEMPO 1706/1709 -RA OVC004 PROB40 TEMPO 1709/1711 4000 RA BECMG 1711/1713 OVC018
  • LFJL

    METAR de LFJL (émis le 2021/01/17 06:00 UTC):
    LFJL 170600Z AUTO 23006KT 7000 OVC006 00/M00 Q1016 TEMPO 1200 -SN BR OVC004

    TAF de LFJL (émis le 2021/01/17 06:06 UTC):
    LFJL 170500Z 1706/1806 22005KT 4000 BR OVC008 TEMPO 1706/1708 2000 -SN OVC002 BECMG 1710/1712 30010KT 6000 NSW TEMPO 1712/1718 OVC012 BECMG 1721/1724 23006KT TEMPO 1803/1806 OVC003
  • LFST

    METAR de LFST (émis le 2021/01/17 06:00 UTC):
    LFST 170600Z AUTO 16003KT 120V200 8000 OVC024 M01/M01 Q1017 NOSIG

    TAF de LFST (émis le 2021/01/17 06:06 UTC):
    LFST 170500Z 1706/1806 20006KT 7000 BKN020 TEMPO 1706/1709 3000 -SN OVC010 TEMPO 1709/1712 3000 -SNRA OVC005 TEMPO 1712/1715 BKN012 FM171900 30008KT 9999 BKN040 BECMG 1722/1724 VRB03KT TEMPO 1800/1806 3000 BR